Time;durP1;ratioP1;P1;durP2;ratioP2;P2;SDS_P1;SDS_P2;PMS_P1;PMS_P2;Temp;Humidity;BMP_temperature;BMP_pressure;BME280_temperature;BME280_humidity;BME280_pressure;Samples;Min_cycle;Max_cycle;Signal;HPM_P1;HPM_P2
2022/03/21 00:02:24;;;;;;;70.18;38.92;;;4.20;99.90;;;;;;5016800;28;20030;-63
2022/03/21 00:04:51;;;;;;;76.35;42.40;;;4.20;99.90;;;;;;5017852;28;20038;-63
2022/03/21 00:07:18;;;;;;;73.05;39.58;;;4.30;99.90;;;;;;5013089;28;20026;-63
2022/03/21 00:09:44;;;;;;;75.43;40.72;;;4.30;99.90;;;;;;5020793;28;20033;-63
2022/03/21 00:12:10;;;;;;;68.88;37.90;;;4.30;99.90;;;;;;5020117;28;20438;-63
2022/03/21 00:14:36;;;;;;;63.95;35.58;;;4.30;99.90;;;;;;5019921;28;20057;-63
2022/03/21 00:17:01;;;;;;;71.25;38.83;;;4.30;99.90;;;;;;5031825;28;20029;-64
2022/03/21 00:19:27;;;;;;;78.22;40.65;;;4.30;99.90;;;;;;5013979;28;20467;-63
2022/03/21 00:21:52;;;;;;;72.82;38.10;;;4.30;99.90;;;;;;5016262;28;20044;-63
2022/03/21 00:24:18;;;;;;;71.85;37.53;;;4.30;99.90;;;;;;5013063;28;20052;-63
2022/03/21 00:26:44;;;;;;;69.45;38.15;;;4.30;99.90;;;;;;5023487;28;20029;-63
2022/03/21 00:29:09;;;;;;;72.50;38.65;;;4.30;99.90;;;;;;5011891;28;20140;-63
2022/03/21 00:31:36;;;;;;;98.68;54.22;;;4.30;99.90;;;;;;5009293;28;20030;-64
2022/03/21 00:34:02;;;;;;;75.68;42.78;;;4.30;99.90;;;;;;5013321;28;20060;-63
2022/03/21 00:36:28;;;;;;;76.88;44.08;;;4.30;99.90;;;;;;5011180;28;20064;-63
2022/03/21 00:38:54;;;;;;;82.95;45.08;;;4.30;99.90;;;;;;5012773;28;20065;-63
2022/03/21 00:41:21;;;;;;;71.22;38.70;;;4.30;99.90;;;;;;5032563;28;20030;-63
2022/03/21 00:43:47;;;;;;;70.38;40.22;;;4.30;99.90;;;;;;5019405;28;20029;-63
2022/03/21 00:46:13;;;;;;;72.85;39.83;;;4.30;99.90;;;;;;5026109;28;20468;-63
2022/03/21 00:48:38;;;;;;;78.57;40.40;;;4.20;99.90;;;;;;5025352;28;20037;-63
2022/03/21 00:51:04;;;;;;;68.75;39.00;;;4.20;99.90;;;;;;5030670;28;20033;-63
2022/03/21 00:53:30;;;;;;;72.22;39.53;;;4.20;99.90;;;;;;5019261;28;20040;-63
2022/03/21 00:55:56;;;;;;;78.50;39.53;;;4.20;99.90;;;;;;5019226;28;20532;-64
2022/03/21 00:58:22;;;;;;;66.10;37.95;;;4.20;99.90;;;;;;5015981;28;20027;-63
2022/03/21 01:00:48;;;;;;;70.00;37.95;;;4.20;99.90;;;;;;5028308;28;20105;-63
2022/03/21 01:03:14;;;;;;;68.10;37.90;;;4.10;99.90;;;;;;5020095;28;20097;-63
2022/03/21 01:05:40;;;;;;;67.47;34.90;;;4.10;99.90;;;;;;5032312;28;20022;-63
2022/03/21 01:08:06;;;;;;;65.88;33.78;;;4.10;99.90;;;;;;5022533;28;20017;-63
2022/03/21 01:10:32;;;;;;;56.47;29.88;;;4.10;99.90;;;;;;5026236;28;20041;-63
2022/03/21 01:12:58;;;;;;;64.03;35.05;;;4.10;99.90;;;;;;5022436;28;20069;-63
2022/03/21 01:15:26;;;;;;;59.55;31.77;;;4.10;99.90;;;;;;5031789;28;20080;-64
2022/03/21 01:17:52;;;;;;;65.78;36.80;;;4.20;99.90;;;;;;5012586;28;20038;-63
2022/03/21 01:20:20;;;;;;;62.47;33.38;;;4.20;99.90;;;;;;5012096;28;20040;-63
2022/03/21 01:22:47;;;;;;;66.40;35.75;;;4.20;99.90;;;;;;5022974;28;20014;-63
2022/03/21 01:25:13;;;;;;;65.82;36.22;;;4.30;99.90;;;;;;5030554;28;20088;-64
2022/03/21 01:27:40;;;;;;;60.38;31.98;;;4.30;99.90;;;;;;5022506;28;20033;-64
2022/03/21 01:30:08;;;;;;;65.28;35.13;;;4.30;99.90;;;;;;5017073;28;20037;-64
2022/03/21 01:32:34;;;;;;;64.85;35.35;;;4.30;99.90;;;;;;5009528;28;20050;-64
2022/03/21 01:35:00;;;;;;;62.83;34.70;;;4.40;99.90;;;;;;5014816;28;21556;-64
2022/03/21 01:37:26;;;;;;;60.92;34.60;;;4.40;99.90;;;;;;5029962;28;20053;-64
2022/03/21 01:39:51;;;;;;;62.13;34.38;;;4.40;99.90;;;;;;5019152;28;20036;-63
2022/03/21 01:42:17;;;;;;;64.20;35.75;;;4.40;99.90;;;;;;5025575;28;20030;-62
2022/03/21 01:44:43;;;;;;;59.78;34.30;;;4.40;99.90;;;;;;5014257;28;20030;-65
2022/03/21 01:47:09;;;;;;;60.83;34.13;;;4.40;99.90;;;;;;5028868;28;20021;-64
2022/03/21 01:49:35;;;;;;;59.35;33.50;;;4.40;99.90;;;;;;5017588;28;20030;-63
2022/03/21 01:52:00;;;;;;;65.18;36.22;;;4.30;99.90;;;;;;5024905;28;20060;-63
2022/03/21 01:57:11;;;;;;;60.05;34.40;;;4.30;99.90;;;;;;5030290;28;20091;-64
2022/03/21 01:59:37;;;;;;;59.50;33.35;;;4.30;99.90;;;;;;5018138;28;20462;-64
2022/03/21 02:02:05;;;;;;;64.43;35.08;;;4.30;99.90;;;;;;5021543;28;20038;-64
2022/03/21 02:04:31;;;;;;;61.00;33.58;;;4.30;99.90;;;;;;5014771;28;20049;-64
2022/03/21 02:06:58;;;;;;;59.28;34.95;;;4.30;99.90;;;;;;5028401;28;20092;-64
2022/03/21 02:09:24;;;;;;;64.53;32.83;;;4.30;99.90;;;;;;5017893;28;20033;-64
2022/03/21 02:11:49;;;;;;;66.43;35.13;;;4.30;99.90;;;;;;5028933;28;20425;-64
2022/03/21 02:14:16;;;;;;;61.60;35.63;;;4.30;99.90;;;;;;5015244;28;20030;-64
2022/03/21 02:16:41;;;;;;;62.85;33.50;;;4.30;99.90;;;;;;5025657;28;20052;-64
2022/03/21 02:19:19;;;;;;;65.97;34.35;;;4.30;99.90;;;;;;5017831;28;20430;-63
2022/03/21 02:21:57;;;;;;;58.20;33.95;;;4.30;99.90;;;;;;5015119;28;20025;-64
2022/03/21 02:25:01;;;;;;;61.70;34.15;;;4.30;99.90;;;;;;5016005;28;20049;-64
2022/03/21 02:27:28;;;;;;;62.40;34.92;;;4.30;99.90;;;;;;5030707;28;20065;-64
2022/03/21 02:29:55;;;;;;;62.65;34.45;;;4.30;99.90;;;;;;5014260;28;20037;-61
2022/03/21 02:32:21;;;;;;;61.03;34.30;;;4.30;99.90;;;;;;5018451;28;20393;-64
2022/03/21 02:34:48;;;;;;;67.00;35.55;;;4.40;99.90;;;;;;5013994;28;20029;-64
2022/03/21 02:37:16;;;;;;;61.47;34.00;;;4.40;99.90;;;;;;5021610;28;20026;-65
2022/03/21 02:39:44;;;;;;;65.40;35.10;;;4.40;99.90;;;;;;5014607;28;20384;-64
2022/03/21 02:42:10;;;;;;;59.28;33.40;;;4.30;99.90;;;;;;5017822;28;20025;-63
2022/03/21 02:44:37;;;;;;;65.72;35.83;;;4.30;99.90;;;;;;5021559;28;20768;-63
2022/03/21 02:47:08;;;;;;;62.88;33.92;;;4.30;99.90;;;;;;5026731;28;20113;-63
2022/03/21 02:49:34;;;;;;;63.20;35.93;;;4.30;99.90;;;;;;5014133;28;20034;-63
2022/03/21 02:52:04;;;;;;;63.13;34.33;;;4.30;99.90;;;;;;5019693;28;20123;-63
2022/03/21 02:54:30;;;;;;;65.72;33.08;;;4.20;99.90;;;;;;5015963;28;20049;-63
2022/03/21 02:56:57;;;;;;;65.55;35.97;;;4.20;99.90;;;;;;5021817;28;20130;-63
2022/03/21 02:59:23;;;;;;;66.63;35.88;;;4.20;99.90;;;;;;5012529;28;20130;-62
2022/03/21 03:01:53;;;;;;;63.78;35.75;;;4.20;99.90;;;;;;5020730;28;20105;-63
2022/03/21 03:04:21;;;;;;;68.80;37.95;;;4.20;99.90;;;;;;5025414;28;20029;-63
2022/03/21 03:06:46;;;;;;;61.05;34.80;;;4.20;99.90;;;;;;5025179;28;20093;-63
2022/03/21 03:09:12;;;;;;;62.70;35.53;;;4.20;99.90;;;;;;5015757;28;20125;-63
2022/03/21 03:11:38;;;;;;;67.13;36.45;;;4.20;99.90;;;;;;5018844;28;20034;-63
2022/03/21 03:14:07;;;;;;;65.90;36.60;;;4.20;99.90;;;;;;5026668;28;20498;-64
2022/03/21 03:16:34;;;;;;;60.05;34.28;;;4.20;99.90;;;;;;5020865;28;20064;-63
2022/03/21 03:18:59;;;;;;;67.60;35.58;;;4.20;99.90;;;;;;5027162;28;20125;-64
2022/03/21 03:21:28;;;;;;;62.25;35.15;;;4.10;99.90;;;;;;5015617;28;20104;-63
2022/03/21 03:23:56;;;;;;;66.18;36.85;;;4.10;99.90;;;;;;5020667;28;20701;-63
2022/03/21 03:26:22;;;;;;;71.22;37.47;;;4.00;99.90;;;;;;5014011;28;20045;-64
2022/03/21 03:28:47;;;;;;;70.40;38.97;;;4.10;99.90;;;;;;5024321;28;20076;-64
2022/03/21 03:31:15;;;;;;;68.97;37.05;;;4.00;99.90;;;;;;5023302;28;20080;-63
2022/03/21 03:33:42;;;;;;;71.32;38.10;;;4.00;99.90;;;;;;5017860;28;20440;-63
2022/03/21 03:36:07;;;;;;;69.82;38.10;;;4.00;99.90;;;;;;5020141;28;20418;-63
2022/03/21 03:38:33;;;;;;;65.22;37.63;;;4.00;99.90;;;;;;5013235;28;20057;-63
2022/03/21 03:40:59;;;;;;;70.40;37.17;;;4.00;99.90;;;;;;5011707;28;20474;-63
2022/03/21 03:43:25;;;;;;;64.18;36.65;;;4.00;99.90;;;;;;5027768;28;20393;-62
2022/03/21 03:45:52;;;;;;;75.32;41.47;;;3.90;99.90;;;;;;5013508;28;20040;-63
2022/03/21 03:48:20;;;;;;;67.97;35.20;;;3.90;99.90;;;;;;5013495;28;20026;-63
2022/03/21 03:50:46;;;;;;;67.95;35.03;;;3.90;99.90;;;;;;5018414;28;20033;-62
2022/03/21 03:53:11;;;;;;;60.60;33.92;;;3.90;99.90;;;;;;5027988;28;20044;-63
2022/03/21 03:55:37;;;;;;;67.35;36.50;;;3.90;99.90;;;;;;5020082;28;20045;-62
2022/03/21 03:58:03;;;;;;;65.28;36.67;;;3.90;99.90;;;;;;5017497;28;20516;-62
2022/03/21 04:00:29;;;;;;;65.15;36.38;;;3.90;99.90;;;;;;5024757;28;20041;-63
2022/03/21 04:05:39;;;;;;;68.05;36.85;;;3.90;99.90;;;;;;5016980;28;20868;-63
2022/03/21 04:08:04;;;;;;;67.13;36.80;;;3.80;99.90;;;;;;5018939;28;20096;-63
2022/03/21 04:10:30;;;;;;;67.82;34.38;;;3.90;99.90;;;;;;5027348;28;20035;-64
2022/03/21 04:12:55;;;;;;;70.38;36.25;;;3.90;99.90;;;;;;5017939;28;20077;-63
2022/03/21 04:15:22;;;;;;;60.35;33.17;;;3.90;99.90;;;;;;5019310;28;20079;-63
2022/03/21 04:17:48;;;;;;;68.00;35.85;;;3.90;99.90;;;;;;5021215;28;20110;-63
2022/03/21 04:20:14;;;;;;;68.38;36.45;;;3.90;99.90;;;;;;5028787;28;20073;-64
2022/03/21 04:22:40;;;;;;;65.70;35.35;;;3.90;99.90;;;;;;5020070;28;20037;-63
2022/03/21 04:25:09;;;;;;;68.68;36.38;;;3.90;99.90;;;;;;5014013;28;20057;-63
2022/03/21 04:27:36;;;;;;;66.68;35.35;;;4.00;99.90;;;;;;5015562;28;20034;-64
2022/03/21 04:30:04;;;;;;;65.53;35.78;;;4.00;99.90;;;;;;5015940;28;20038;-64
2022/03/21 04:32:30;;;;;;;70.82;37.55;;;4.00;99.90;;;;;;5019738;28;20037;-63
2022/03/21 04:34:55;;;;;;;64.68;35.03;;;4.00;99.90;;;;;;5029676;28;20029;-64
2022/03/21 04:37:21;;;;;;;66.60;37.72;;;3.90;99.90;;;;;;5019711;28;20037;-64
2022/03/21 04:39:46;;;;;;;74.30;37.95;;;3.90;99.90;;;;;;5028169;28;20037;-64
2022/03/21 04:42:12;;;;;;;65.85;36.80;;;3.90;99.90;;;;;;5024654;28;20025;-64
2022/03/21 04:44:39;;;;;;;68.20;36.70;;;3.90;99.90;;;;;;5023628;28;20113;-64
2022/03/21 04:47:06;;;;;;;67.88;36.88;;;3.90;99.90;;;;;;5017710;28;20029;-64
2022/03/21 04:49:32;;;;;;;65.85;37.38;;;3.90;99.90;;;;;;5029796;28;20438;-64
2022/03/21 04:51:57;;;;;;;69.50;36.78;;;3.90;99.90;;;;;;5030409;28;20065;-64
2022/03/21 04:54:23;;;;;;;70.40;37.28;;;3.80;99.90;;;;;;5018204;28;20034;-64
2022/03/21 04:56:49;;;;;;;71.55;39.22;;;3.80;99.90;;;;;;5017013;28;20096;-64
2022/03/21 04:59:14;;;;;;;71.15;36.78;;;3.80;99.90;;;;;;5016248;28;20045;-64
2022/03/21 05:01:40;;;;;;;70.47;39.00;;;3.80;99.90;;;;;;5033439;28;20056;-64
2022/03/21 05:04:06;;;;;;;70.07;37.28;;;3.80;99.90;;;;;;5023941;28;20389;-64
2022/03/21 05:06:34;;;;;;;66.13;35.85;;;3.80;99.90;;;;;;5024595;28;20040;-64
2022/03/21 05:09:03;;;;;;;70.05;38.50;;;3.80;99.90;;;;;;5029763;28;20022;-64
2022/03/21 05:11:29;;;;;;;74.07;38.60;;;3.80;99.90;;;;;;5018846;28;20030;-64
2022/03/21 05:13:55;;;;;;;71.57;37.00;;;3.80;99.90;;;;;;5028614;28;20084;-63
2022/03/21 05:16:21;;;;;;;69.05;37.88;;;3.80;99.90;;;;;;5017229;28;20025;-63
2022/03/21 05:18:48;;;;;;;71.10;38.15;;;3.80;99.90;;;;;;5014562;28;20037;-63
2022/03/21 05:21:14;;;;;;;66.20;36.42;;;3.70;99.90;;;;;;5015533;28;20099;-63
2022/03/21 05:31:51;;;;;;;81.40;39.53;;;3.70;99.90;;;;;;5019536;28;20509;-64
2022/03/21 05:37:01;;;;;;;83.55;38.05;;;3.70;99.90;;;;;;5021408;28;20068;-63
2022/03/21 05:39:26;;;;;;;73.53;38.58;;;3.70;99.90;;;;;;5027409;28;20037;-63
2022/03/21 05:41:52;;;;;;;72.63;37.88;;;3.70;99.90;;;;;;5030587;28;20034;-64
2022/03/21 05:44:18;;;;;;;69.43;37.28;;;3.70;99.90;;;;;;5017987;28;20029;-63
2022/03/21 05:46:44;;;;;;;66.40;36.90;;;3.70;99.90;;;;;;5018607;28;20550;-63
2022/03/21 05:49:09;;;;;;;70.25;38.63;;;3.80;99.90;;;;;;5014556;28;20029;-63
2022/03/21 05:51:40;;;;;;;66.80;38.03;;;3.70;99.90;;;;;;5016079;28;20053;-63
2022/03/21 05:54:08;;;;;;;73.13;38.72;;;3.80;99.90;;;;;;5032018;28;20037;-64
2022/03/21 05:56:35;;;;;;;73.43;39.20;;;3.70;99.90;;;;;;5018684;28;20033;-65
2022/03/21 06:01:46;;;;;;;72.40;36.70;;;3.80;99.90;;;;;;5018342;28;20041;-64
2022/03/21 06:04:12;;;;;;;70.90;37.72;;;3.80;99.90;;;;;;5017952;28;20293;-64
2022/03/21 06:06:38;;;;;;;66.72;36.75;;;3.80;99.90;;;;;;5021641;28;20436;-63
2022/03/21 06:09:03;;;;;;;67.20;37.70;;;3.80;99.90;;;;;;5028168;28;20021;-64
2022/03/21 06:11:29;;;;;;;69.47;37.78;;;3.90;99.90;;;;;;5030877;28;20060;-64
2022/03/21 06:13:54;;;;;;;73.07;37.95;;;3.90;99.90;;;;;;5015332;28;20041;-64
2022/03/21 06:16:21;;;;;;;70.70;37.25;;;3.90;99.90;;;;;;5013070;28;20113;-64
2022/03/21 06:18:46;;;;;;;68.32;37.28;;;4.00;99.90;;;;;;5015127;28;20034;-64
2022/03/21 06:21:12;;;;;;;69.65;37.30;;;4.00;99.90;;;;;;5029461;28;20087;-65
2022/03/21 06:23:38;;;;;;;63.65;35.08;;;4.00;99.90;;;;;;5017618;28;20449;-63
2022/03/21 06:26:05;;;;;;;70.60;36.65;;;4.10;99.90;;;;;;5025334;28;20116;-63
2022/03/21 06:28:32;;;;;;;64.50;36.75;;;4.10;99.90;;;;;;5025170;28;20045;-63
2022/03/21 06:30:58;;;;;;;63.30;34.78;;;4.20;99.90;;;;;;5030894;28;20057;-65
2022/03/21 06:33:26;;;;;;;64.72;36.92;;;4.20;99.90;;;;;;5014162;28;20038;-64
2022/03/21 06:35:52;;;;;;;66.72;36.25;;;4.30;99.90;;;;;;5027056;28;20375;-64
2022/03/21 06:38:18;;;;;;;68.68;36.33;;;4.40;99.90;;;;;;5025136;28;20355;-64
2022/03/21 06:40:43;;;;;;;66.63;36.28;;;4.40;99.90;;;;;;5029537;28;20040;-64
2022/03/21 06:43:10;;;;;;;67.13;36.33;;;4.50;99.90;;;;;;5018722;28;20068;-64
2022/03/21 06:45:36;;;;;;;68.70;36.60;;;4.60;99.90;;;;;;5021014;28;20080;-64
2022/03/21 06:48:02;;;;;;;64.32;34.63;;;4.70;99.90;;;;;;5020226;28;20033;-64
2022/03/21 06:50:27;;;;;;;62.92;35.10;;;4.70;99.90;;;;;;5023286;28;20061;-63
2022/03/21 06:52:54;;;;;;;62.17;34.42;;;4.80;99.90;;;;;;5019046;28;20034;-63
2022/03/21 06:55:20;;;;;;;65.25;36.45;;;4.90;99.90;;;;;;5019654;28;20109;-64
2022/03/21 06:57:46;;;;;;;64.35;35.05;;;5.00;99.90;;;;;;5023554;28;20466;-64
2022/03/21 07:00:16;;;;;;;62.92;35.40;;;5.00;99.90;;;;;;5031218;28;20095;-64
2022/03/21 07:02:43;;;;;;;59.47;35.05;;;5.10;99.90;;;;;;5006869;28;20613;-63
2022/03/21 07:05:09;;;;;;;62.35;33.67;;;5.20;99.90;;;;;;5013387;28;20109;-64
2022/03/21 07:07:35;;;;;;;63.78;35.22;;;5.30;99.90;;;;;;5015443;28;20445;-63
2022/03/21 07:10:01;;;;;;;58.25;33.92;;;5.40;99.90;;;;;;5018922;28;20052;-64
2022/03/21 07:12:27;;;;;;;60.00;33.38;;;5.50;99.90;;;;;;5021507;28;20095;-64
2022/03/21 07:14:52;;;;;;;55.80;33.50;;;5.60;99.90;;;;;;5018350;28;20033;-64
2022/03/21 07:17:19;;;;;;;60.55;35.28;;;5.70;99.90;;;;;;5009851;28;20161;-64
2022/03/21 07:19:45;;;;;;;59.28;33.38;;;5.80;99.90;;;;;;5014702;28;20498;-64
2022/03/21 07:22:11;;;;;;;57.20;32.30;;;5.90;99.90;;;;;;5020308;28;20033;-64
2022/03/21 07:24:37;;;;;;;56.47;33.80;;;6.00;99.90;;;;;;5012310;28;20417;-63
2022/03/21 07:27:03;;;;;;;54.40;31.90;;;6.10;99.90;;;;;;5008127;28;20109;-64
2022/03/21 07:29:29;;;;;;;58.78;33.70;;;6.20;99.90;;;;;;5029466;28;20037;-64
2022/03/21 07:31:55;;;;;;;56.88;32.05;;;6.30;99.90;;;;;;5014722;28;20040;-64
2022/03/21 07:34:20;;;;;;;58.25;33.45;;;6.40;99.90;;;;;;5026396;28;20039;-64
2022/03/21 07:36:46;;;;;;;59.85;33.78;;;6.60;99.90;;;;;;5020614;28;20068;-63
2022/03/21 07:39:13;;;;;;;58.50;32.40;;;6.70;99.90;;;;;;5022669;28;20026;-63
2022/03/21 07:41:39;;;;;;;56.53;32.53;;;6.80;99.90;;;;;;5021057;28;20116;-64
2022/03/21 07:44:05;;;;;;;54.95;31.92;;;6.90;99.90;;;;;;5021899;28;20105;-64
2022/03/21 07:49:15;;;;;;;56.35;33.17;;;7.30;99.90;;;;;;5018977;28;20057;-64
2022/03/21 07:51:43;;;;;;;55.85;32.30;;;7.60;99.90;;;;;;5019755;28;20031;-63
2022/03/21 07:54:12;;;;;;;52.58;31.27;;;7.80;99.90;;;;;;5025798;28;20123;-63
2022/03/21 07:56:38;;;;;;;49.38;30.45;;;8.30;99.90;;;;;;5020408;28;20029;-63
2022/03/21 07:59:04;;;;;;;56.40;31.45;;;8.80;99.90;;;;;;5012036;28;20053;-64
2022/03/21 08:01:30;;;;;;;51.72;30.15;;;9.40;99.90;;;;;;5014053;28;20064;-63
2022/03/21 08:04:00;;;;;;;47.65;28.35;;;10.20;99.90;;;;;;5022573;28;20028;-64
2022/03/21 08:06:26;;;;;;;47.63;29.23;;;11.10;99.90;;;;;;5013630;28;20025;-63
2022/03/21 08:08:54;;;;;;;44.30;27.75;;;11.90;99.90;;;;;;5019881;28;20034;-63
2022/03/21 08:11:20;;;;;;;48.55;28.65;;;12.80;99.90;;;;;;5013445;28;20026;-63
2022/03/21 08:13:49;;;;;;;43.35;28.70;;;13.80;99.90;;;;;;5011279;28;20040;-63
2022/03/21 08:16:19;;;;;;;46.22;29.42;;;14.40;99.90;;;;;;5016061;28;20032;-64
2022/03/21 08:18:48;;;;;;;41.90;26.88;;;15.00;98.30;;;;;;5010579;28;20105;-63
2022/03/21 08:21:14;;;;;;;44.78;28.98;;;15.70;97.40;;;;;;5026407;28;20017;-63
2022/03/21 08:23:39;;;;;;;42.53;27.50;;;16.30;96.30;;;;;;5013636;28;20527;-64
2022/03/21 08:26:05;;;;;;;42.92;30.17;;;16.80;95.30;;;;;;5018437;28;20054;-64
2022/03/21 08:28:30;;;;;;;39.65;27.48;;;17.40;95.10;;;;;;5009676;28;20433;-64
2022/03/21 08:30:56;;;;;;;37.55;26.27;;;18.20;94.80;;;;;;5011629;28;20057;-64
2022/03/21 08:33:21;;;;;;;39.58;25.58;;;18.80;92.30;;;;;;5016447;28;20141;-64
2022/03/21 08:35:47;;;;;;;37.95;27.25;;;19.10;89.70;;;;;;5021910;28;20041;-64
2022/03/21 08:38:13;;;;;;;40.15;27.60;;;19.20;89.60;;;;;;5014193;28;20377;-64
2022/03/21 08:40:39;;;;;;;36.70;28.13;;;19.40;87.60;;;;;;5020080;28;20116;-63
2022/03/21 08:43:05;;;;;;;38.53;27.80;;;19.70;88.10;;;;;;5017879;28;20130;-64
2022/03/21 08:45:31;;;;;;;39.75;27.20;;;20.20;86.80;;;;;;5027108;28;20462;-63
2022/03/21 08:47:56;;;;;;;36.00;26.73;;;20.60;84.90;;;;;;5012793;28;20105;-64
2022/03/21 08:50:22;;;;;;;35.03;26.42;;;20.80;83.70;;;;;;5012003;28;20129;-63
2022/03/21 08:52:48;;;;;;;37.60;27.38;;;21.30;82.90;;;;;;5012566;28;20040;-63
2022/03/21 08:55:13;;;;;;;36.88;26.63;;;21.50;80.60;;;;;;5017406;28;20124;-63
2022/03/21 08:57:39;;;;;;;36.15;26.25;;;22.00;80.90;;;;;;5019493;28;20412;-63
2022/03/21 09:00:07;;;;;;;33.40;25.40;;;22.50;78.20;;;;;;5018368;28;20449;-63
2022/03/21 09:02:34;;;;;;;36.83;26.48;;;22.60;74.80;;;;;;5027412;28;20610;-63
2022/03/21 09:04:59;;;;;;;34.40;25.42;;;22.70;75.10;;;;;;5028510;28;20033;-63
2022/03/21 09:07:25;;;;;;;35.50;26.40;;;23.10;75.50;;;;;;5014714;28;20030;-63
2022/03/21 09:09:51;;;;;;;33.05;25.30;;;23.60;73.60;;;;;;5021242;28;20450;-63
2022/03/21 09:12:16;;;;;;;34.60;25.98;;;24.00;72.90;;;;;;5024819;28;20513;-63
2022/03/21 09:14:42;;;;;;;32.67;26.13;;;24.40;71.30;;;;;;5017449;28;20042;-63
2022/03/21 09:17:08;;;;;;;34.72;26.38;;;24.80;70.40;;;;;;5016405;28;20025;-64
2022/03/21 09:19:34;;;;;;;33.35;25.90;;;25.10;69.30;;;;;;5014929;28;20046;-63
2022/03/21 09:22:00;;;;;;;32.25;25.13;;;25.40;67.30;;;;;;5020656;28;20056;-63
2022/03/21 09:24:26;;;;;;;33.60;24.48;;;25.60;66.50;;;;;;5025669;28;20128;-63
2022/03/21 09:26:52;;;;;;;32.92;23.73;;;25.60;64.00;;;;;;5018945;28;20113;-63
2022/03/21 09:29:18;;;;;;;36.05;25.30;;;25.20;63.00;;;;;;5031175;28;20033;-63
2022/03/21 09:31:46;;;;;;;33.72;25.02;;;24.50;63.60;;;;;;5017448;28;20466;-63
2022/03/21 09:34:13;;;;;;;33.95;24.98;;;24.30;64.10;;;;;;5021584;28;20065;-63
2022/03/21 09:36:39;;;;;;;33.55;23.92;;;24.20;63.60;;;;;;5019008;28;20029;-63
2022/03/21 09:39:06;;;;;;;31.85;23.10;;;24.30;62.70;;;;;;5015782;28;20040;-63
2022/03/21 09:41:33;;;;;;;31.70;22.90;;;24.30;62.60;;;;;;5025613;28;20040;-63
2022/03/21 09:44:03;;;;;;;31.60;22.75;;;24.40;63.30;;;;;;5015916;28;20117;-63
2022/03/21 09:46:29;;;;;;;32.60;22.33;;;24.40;61.80;;;;;;5017254;28;20065;-63
2022/03/21 09:48:57;;;;;;;33.08;22.77;;;24.50;61.80;;;;;;5009012;28;20030;-63
2022/03/21 09:51:27;;;;;;;31.00;21.90;;;24.40;61.40;;;;;;5026183;28;20022;-63
2022/03/21 09:53:59;;;;;;;32.60;22.42;;;24.40;60.20;;;;;;5021535;28;20398;-63
2022/03/21 09:56:26;;;;;;;31.08;19.88;;;24.00;60.80;;;;;;5016006;28;20034;-63
2022/03/21 09:58:59;;;;;;;30.23;20.52;;;23.60;61.40;;;;;;5027693;28;20049;-63
2022/03/21 10:01:25;;;;;;;30.52;22.40;;;23.60;60.70;;;;;;5011795;28;20060;-63
2022/03/21 10:03:51;;;;;;;31.98;21.95;;;23.40;61.20;;;;;;5018685;28;20033;-63
2022/03/21 10:06:44;;;;;;;33.10;23.13;;;23.50;63.40;;;;;;5013889;28;20034;-62
2022/03/21 10:09:18;;;;;;;30.58;21.38;;;24.10;61.90;;;;;;5011683;28;20021;-63
2022/03/21 10:11:52;;;;;;;30.80;21.65;;;24.40;59.80;;;;;;5015741;28;20105;-62
2022/03/21 10:14:34;;;;;;;30.98;21.40;;;24.60;60.60;;;;;;5026338;28;20030;-63
2022/03/21 10:17:03;;;;;;;;;;;25.00;59.60;;;;;;5016007;28;20034;-63
2022/03/21 10:19:40;;;;;;;29.02;19.17;;;25.40;58.00;;;;;;5031142;28;19913;-63
2022/03/21 10:22:11;;;;;;;27.63;18.17;;;25.30;57.40;;;;;;5017566;28;20492;-63
2022/03/21 10:24:45;;;;;;;27.08;18.95;;;25.00;57.50;;;;;;5015545;28;20101;-64
2022/03/21 10:27:33;;;;;;;29.30;19.90;;;25.00;57.30;;;;;;5014104;28;20103;-65
2022/03/21 10:30:07;;;;;;;27.77;19.55;;;24.80;57.30;;;;;;5007916;28;20474;-66
2022/03/21 10:32:56;;;;;;;28.08;19.45;;;25.10;57.20;;;;;;5010416;28;20034;-66
2022/03/21 10:35:31;;;;;;;28.63;18.55;;;25.70;57.60;;;;;;5014494;28;20061;-67
2022/03/21 10:38:03;;;;;;;26.60;18.75;;;26.10;56.00;;;;;;5013689;28;20136;-66
2022/03/21 10:40:30;;;;;;;28.47;20.07;;;26.40;55.20;;;;;;5013460;28;20133;-68
2022/03/21 10:43:03;;;;;;;26.15;18.73;;;26.60;54.10;;;;;;5013978;28;20443;-64
2022/03/21 10:45:34;;;;;;;28.25;19.75;;;26.60;53.90;;;;;;5008514;28;20488;-62
2022/03/21 10:48:07;;;;;;;26.52;17.05;;;26.50;55.10;;;;;;5006585;28;20030;-65
2022/03/21 10:50:36;;;;;;;26.20;15.95;;;26.60;54.10;;;;;;5012073;28;20386;-64
2022/03/21 10:53:07;;;;;;;26.85;17.38;;;26.50;51.80;;;;;;4996895;28;20034;-63
2022/03/21 10:55:32;;;;;;;24.70;16.47;;;26.20;52.40;;;;;;5014336;28;20108;-63
2022/03/21 10:57:58;;;;;;;25.60;16.33;;;26.20;52.30;;;;;;5013961;28;20106;-63
2022/03/21 11:00:31;;;;;;;23.98;15.80;;;26.40;51.30;;;;;;5005504;28;20062;-64
2022/03/21 11:03:05;;;;;;;24.30;15.25;;;26.50;50.20;;;;;;5010567;28;20057;-63
2022/03/21 11:05:36;;;;;;;23.02;15.77;;;26.30;50.60;;;;;;5010960;28;20585;-63
2022/03/21 11:08:04;;;;;;;24.15;16.45;;;26.50;50.40;;;;;;5001798;28;20358;-63
2022/03/21 11:10:30;;;;;;;22.45;16.10;;;26.90;51.90;;;;;;5004917;28;20536;-64
2022/03/21 11:12:58;;;;;;;21.60;13.43;;;27.50;50.80;;;;;;5014141;28;20034;-66
2022/03/21 11:15:24;;;;;;;24.30;16.30;;;27.80;49.00;;;;;;5021980;28;20402;-65
2022/03/21 11:17:51;;;;;;;24.05;14.70;;;28.00;48.90;;;;;;5012349;28;20075;-65
2022/03/21 11:20:16;;;;;;;21.80;13.90;;;28.10;47.90;;;;;;5014537;28;20060;-63
2022/03/21 11:22:43;;;;;;;21.17;13.23;;;27.80;47.60;;;;;;5023938;28;20344;-62
2022/03/21 11:25:21;;;;;;;22.40;12.68;;;27.40;46.30;;;;;;5014024;28;20042;-62
2022/03/21 11:28:04;;;;;;;23.63;13.98;;;27.00;46.10;;;;;;5017503;28;20041;-62
2022/03/21 11:30:55;;;;;;;21.13;14.23;;;27.10;46.20;;;;;;5009677;28;20051;-64
2022/03/21 11:33:26;;;;;;;20.92;12.45;;;27.20;47.70;;;;;;5022983;28;20067;-62
2022/03/21 11:36:00;;;;;;;20.80;12.95;;;27.10;45.80;;;;;;5014550;28;20402;-64
2022/03/21 11:38:33;;;;;;;22.63;13.77;;;27.00;46.70;;;;;;5010280;28;20034;-62
2022/03/21 11:41:15;;;;;;;20.98;12.85;;;26.70;47.10;;;;;;5010227;28;20038;-63
2022/03/21 11:43:43;;;;;;;22.67;13.35;;;26.80;45.80;;;;;;5009991;28;20080;-63
2022/03/21 11:46:22;;;;;;;22.08;13.88;;;27.20;45.60;;;;;;5011287;28;20423;-63
2022/03/21 11:48:48;;;;;;;23.15;14.32;;;27.70;46.30;;;;;;5018479;28;20089;-62
2022/03/21 11:51:17;;;;;;;23.10;11.82;;;27.90;46.40;;;;;;5013914;28;20037;-62
2022/03/21 11:53:48;;;;;;;20.23;12.10;;;28.20;44.80;;;;;;5007603;28;20067;-62
2022/03/21 11:56:18;;;;;;;19.17;11.98;;;28.00;43.80;;;;;;5027370;28;20126;-62
2022/03/21 11:58:45;;;;;;;18.85;11.75;;;28.00;44.40;;;;;;5032641;28;20061;-62
2022/03/21 12:01:16;;;;;;;20.50;11.85;;;28.30;43.70;;;;;;5017109;28;20101;-63
2022/03/21 12:03:43;;;;;;;20.20;12.35;;;28.80;44.00;;;;;;5013529;28;20535;-66
2022/03/21 12:06:30;;;;;;;22.40;13.63;;;29.10;43.60;;;;;;5032600;28;20092;-63
2022/03/21 12:09:01;;;;;;;23.35;12.82;;;29.30;43.40;;;;;;5021112;28;20385;-64
2022/03/21 12:11:46;;;;;;;20.02;12.20;;;29.40;42.20;;;;;;5013492;28;20098;-63
2022/03/21 12:14:30;;;;;;;20.55;12.35;;;29.20;42.30;;;;;;5011413;28;20045;-63
2022/03/21 12:17:01;;;;;;;21.55;13.20;;;29.20;43.40;;;;;;5019913;28;20520;-65
2022/03/21 12:20:01;;;;;;;21.08;12.63;;;29.20;42.20;;;;;;5009054;28;20084;-63
2022/03/21 12:22:29;;;;;;;18.52;11.65;;;28.90;41.90;;;;;;5012633;28;20044;-64
2022/03/21 12:25:06;;;;;;;21.40;12.65;;;28.10;42.10;;;;;;5024080;28;20474;-64
2022/03/21 12:27:33;;;;;;;21.08;12.88;;;27.70;42.30;;;;;;5015540;28;20034;-63
2022/03/21 12:30:20;;;;;;;20.38;13.00;;;27.80;43.00;;;;;;5008302;28;20028;-63
2022/03/21 12:33:10;;;;;;;21.05;13.48;;;28.00;42.90;;;;;;5025023;28;20387;-63
2022/03/21 12:35:39;;;;;;;22.08;13.75;;;28.00;43.50;;;;;;5003947;28;20466;-63
2022/03/21 12:38:16;;;;;;;21.23;13.60;;;27.70;42.80;;;;;;5028445;28;20028;-63
2022/03/21 12:40:51;;;;;;;22.65;13.52;;;27.50;43.50;;;;;;5020856;28;20425;-63
2022/03/21 12:43:19;;;;;;;20.25;12.98;;;27.60;43.90;;;;;;5017285;28;20038;-62
2022/03/21 12:45:45;;;;;;;21.92;14.27;;;28.00;43.60;;;;;;5004032;28;20026;-62
2022/03/21 12:48:13;;;;;;;22.10;12.82;;;28.30;43.10;;;;;;5015281;28;20033;-62
2022/03/21 12:50:39;;;;;;;19.38;12.45;;;28.50;42.70;;;;;;5016878;28;20022;-62
2022/03/21 12:53:09;;;;;;;24.35;13.48;;;28.20;42.60;;;;;;5005834;28;20061;-62
2022/03/21 12:55:35;;;;;;;20.75;13.70;;;28.00;42.70;;;;;;5014846;28;20091;-62
2022/03/21 12:58:05;;;;;;;22.73;13.00;;;28.00;43.00;;;;;;5016162;28;20116;-64
2022/03/21 13:00:36;;;;;;;21.42;13.00;;;27.60;42.40;;;;;;5021172;28;20454;-64